Time;durP1;ratioP1;P1;durP2;ratioP2;P2;SDS_P1;SDS_P2;PMS_P1;PMS_P2;Temp;Humidity;BMP_temperature;BMP_pressure;BME280_temperature;BME280_humidity;BME280_pressure;Samples;Min_cycle;Max_cycle;Signal;HPM_P1;HPM_P2
2022/05/30 00:00:53;;;;;;;;;;;21.90;34.70;;;;;;5147973;27;19987;-56
2022/05/30 00:03:19;;;;;;;;;;;21.90;34.50;;;;;;5145730;27;19927;-46
2022/05/30 00:05:46;;;;;;;;;;;21.90;34.50;;;;;;5143790;27;20146;-46
2022/05/30 00:08:12;;;;;;;;;;;21.90;34.60;;;;;;5147469;27;20323;-48
2022/05/30 00:10:38;;;;;;;;;;;21.80;34.70;;;;;;5142801;27;20354;-45
2022/05/30 00:13:03;;;;;;;;;;;21.80;34.80;;;;;;5143096;27;19923;-46
2022/05/30 00:15:32;;;;;;;;;;;21.70;34.90;;;;;;5148782;27;19942;-45
2022/05/30 00:17:58;;;;;;;;;;;21.70;34.90;;;;;;5143670;27;19926;-44
2022/05/30 00:20:23;;;;;;;;;;;21.70;34.90;;;;;;5143833;27;19970;-54
2022/05/30 00:22:49;;;;;;;;;;;21.80;34.80;;;;;;5148248;27;19929;-49
2022/05/30 00:25:15;;;;;;;;;;;21.80;34.80;;;;;;5142613;27;19930;-48
2022/05/30 00:27:41;;;;;;;;;;;21.80;34.70;;;;;;5145479;27;19923;-44
2022/05/30 00:30:07;;;;;;;;;;;22.00;34.50;;;;;;5142369;27;19967;-44
2022/05/30 00:32:33;;;;;;;;;;;21.90;34.60;;;;;;5124220;27;20426;-45
2022/05/30 00:34:59;;;;;;;;;;;21.90;34.60;;;;;;5148073;27;20271;-44
2022/05/30 00:37:25;;;;;;;;;;;22.00;34.60;;;;;;5142673;27;19938;-48
2022/05/30 00:39:51;;;;;;;;;;;21.90;34.90;;;;;;5124675;27;20378;-45
2022/05/30 00:42:21;;;;;;;;;;;21.80;34.90;;;;;;5147839;27;20013;-45
2022/05/30 00:44:48;;;;;;;;;;;21.80;35.10;;;;;;5141201;27;20004;-45
2022/05/30 00:47:14;;;;;;;;;;;21.80;34.90;;;;;;5146622;27;19931;-47
2022/05/30 00:49:40;;;;;;;;;;;21.90;34.90;;;;;;5123687;27;19923;-45
2022/05/30 00:52:07;;;;;;;;;;;21.90;34.80;;;;;;5142774;27;19933;-45
2022/05/30 00:54:34;;;;;;;;;;;21.90;34.70;;;;;;5129527;27;19923;-48
2022/05/30 00:57:00;;;;;;;;;;;22.00;34.60;;;;;;5142475;27;20309;-44
2022/05/30 00:59:26;;;;;;;;;;;22.00;34.50;;;;;;5123800;27;20170;-45
2022/05/30 01:01:51;;;;;;;;;;;22.00;34.60;;;;;;5111727;27;19929;-47
2022/05/30 01:07:03;;;;;;;;;;;21.90;34.80;;;;;;5141683;27;20273;-50
2022/05/30 01:09:33;;;;;;;;;;;21.90;34.70;;;;;;5129162;27;19975;-44
2022/05/30 01:12:00;;;;;;;;;;;21.80;34.80;;;;;;5141948;27;19923;-43
2022/05/30 01:14:27;;;;;;;;;;;21.80;34.80;;;;;;5146060;27;19927;-51
2022/05/30 01:16:52;;;;;;;;;;;21.90;34.50;;;;;;5144149;27;19923;-44
2022/05/30 01:19:37;;;;;;;;;;;22.00;34.50;;;;;;5141526;27;19972;-45
2022/05/30 01:22:13;;;;;;;;;;;21.80;34.60;;;;;;5145028;27;19930;-45
2022/05/30 01:24:47;;;;;;;;;;;22.00;34.30;;;;;;5144024;27;20446;-46
2022/05/30 01:27:13;;;;;;;;;;;21.90;34.40;;;;;;5141455;27;19923;-45
2022/05/30 01:29:40;;;;;;;;;;;21.90;34.30;;;;;;5147153;27;19930;-45
2022/05/30 01:32:06;;;;;;;;;;;21.90;34.40;;;;;;5122828;27;19933;-45
2022/05/30 01:34:32;;;;;;;;;;;22.10;34.10;;;;;;5141817;27;19923;-44
2022/05/30 01:36:57;;;;;;;;;;;22.00;34.30;;;;;;5146747;27;19923;-46
2022/05/30 01:39:23;;;;;;;;;;;21.70;34.60;;;;;;5140288;27;19946;-45
2022/05/30 01:41:49;;;;;;;;;;;20.90;35.60;;;;;;5139894;27;20228;-45
2022/05/30 01:44:15;;;;;;;;;;;20.90;35.60;;;;;;5146620;27;20320;-43
2022/05/30 01:46:41;;;;;;;;;;;21.30;35.40;;;;;;5141376;27;19926;-43
2022/05/30 01:49:07;;;;;;;;;;;21.50;35.10;;;;;;5128486;27;20018;-45
2022/05/30 01:51:32;;;;;;;;;;;21.70;34.70;;;;;;5122285;27;20497;-43
2022/05/30 01:53:58;;;;;;;;;;;21.80;34.40;;;;;;5141680;27;19946;-44
2022/05/30 01:56:24;;;;;;;;;;;21.90;34.30;;;;;;5146847;27;20068;-45
2022/05/30 01:58:50;;;;;;;;;;;21.80;34.40;;;;;;5139948;27;19923;-43
2022/05/30 02:01:18;;;;;;;;;;;22.00;34.10;;;;;;5141710;27;19934;-45
2022/05/30 02:03:44;;;;;;;;;;;22.10;34.00;;;;;;5147350;27;19923;-44
2022/05/30 02:06:10;;;;;;;;;;;22.10;34.00;;;;;;5141956;27;19979;-43
2022/05/30 02:08:36;;;;;;;;;;;22.20;33.90;;;;;;5146955;27;19923;-51
2022/05/30 02:11:02;;;;;;;;;;;22.00;34.10;;;;;;5125749;27;19946;-43
2022/05/30 02:13:27;;;;;;;;;;;22.00;34.00;;;;;;5143457;27;19927;-46
2022/05/30 02:18:38;;;;;;;;;;;22.00;34.10;;;;;;5142418;27;19994;-44
2022/05/30 02:21:03;;;;;;;;;;;21.90;34.20;;;;;;5143042;27;19923;-44
2022/05/30 02:23:29;;;;;;;;;;;21.90;34.10;;;;;;5146533;27;19923;-43
2022/05/30 02:25:55;;;;;;;;;;;22.10;33.90;;;;;;5143022;27;20024;-44
2022/05/30 02:28:21;;;;;;;;;;;22.00;33.90;;;;;;5142231;27;20148;-43
2022/05/30 02:30:47;;;;;;;;;;;22.20;33.70;;;;;;5128556;27;20005;-44
2022/05/30 02:38:44;;;;;;;;;;;22.10;33.70;;;;;;5145534;27;19978;-46
2022/05/30 02:41:09;;;;;;;;;;;22.00;33.90;;;;;;5140505;27;19931;-47
2022/05/30 02:43:35;;;;;;;;;;;22.00;33.90;;;;;;5141950;27;20267;-52
2022/05/30 02:46:01;;;;;;;;;;;22.00;33.80;;;;;;5145850;27;19925;-44
2022/05/30 02:48:27;;;;;;;;;;;21.80;34.20;;;;;;5140871;27;19929;-44
2022/05/30 02:50:53;;;;;;;;;;;21.90;34.00;;;;;;5148830;27;20022;-43
2022/05/30 02:53:19;;;;;;;;;;;22.00;33.90;;;;;;5142536;27;20508;-46
2022/05/30 02:55:44;;;;;;;;;;;22.00;33.90;;;;;;5143038;27;19936;-43
2022/05/30 02:58:10;;;;;;;;;;;22.00;33.80;;;;;;5149108;27;19930;-44
2022/05/30 03:00:36;;;;;;;;;;;22.10;33.70;;;;;;5144300;27;19965;-43
2022/05/30 03:03:02;;;;;;;;;;;22.10;33.60;;;;;;5125712;27;19930;-43
2022/05/30 03:05:28;;;;;;;;;;;22.20;33.60;;;;;;5149787;27;19923;-44
2022/05/30 03:07:53;;;;;;;;;;;22.20;33.50;;;;;;5144254;27;19981;-44
2022/05/30 03:10:19;;;;;;;;;;;22.20;33.40;;;;;;5149210;27;20010;-45
2022/05/30 03:12:45;;;;;;;;;;;22.10;33.50;;;;;;5141480;27;19987;-44
2022/05/30 03:15:11;;;;;;;;;;;22.10;33.60;;;;;;5143335;27;19927;-49
2022/05/30 03:17:37;;;;;;;;;;;22.00;33.70;;;;;;5149342;27;19927;-45
2022/05/30 03:20:06;;;;;;;;;;;21.90;33.80;;;;;;5144041;27;19960;-44
2022/05/30 03:22:32;;;;;;;;;;;22.00;33.70;;;;;;5143613;27;20302;-44
2022/05/30 03:24:57;;;;;;;;;;;22.00;33.80;;;;;;5149730;27;19929;-46
2022/05/30 03:27:23;;;;;;;;;;;22.00;33.70;;;;;;5143730;27;19952;-44
2022/05/30 03:29:49;;;;;;;;;;;22.00;33.60;;;;;;5147708;27;20390;-44
2022/05/30 03:32:15;;;;;;;;;;;22.10;33.50;;;;;;5142207;27;19923;-46
2022/05/30 03:34:41;;;;;;;;;;;22.20;33.40;;;;;;5143096;27;19930;-47
2022/05/30 03:37:06;;;;;;;;;;;22.10;33.40;;;;;;5148930;27;20378;-44
2022/05/30 03:39:32;;;;;;;;;;;22.20;33.40;;;;;;5143618;27;19952;-44
2022/05/30 03:41:58;;;;;;;;;;;22.20;33.30;;;;;;5143564;27;19923;-43
2022/05/30 03:44:24;;;;;;;;;;;21.90;33.80;;;;;;5148986;27;19934;-43
2022/05/30 03:46:49;;;;;;;;;;;21.30;34.80;;;;;;5143505;27;19923;-48
2022/05/30 03:49:15;;;;;;;;;;;20.90;34.90;;;;;;5145492;27;19923;-51
2022/05/30 03:51:41;;;;;;;;;;;21.20;35.20;;;;;;5124313;27;19927;-45
2022/05/30 03:54:07;;;;;;;;;;;21.50;34.60;;;;;;5143252;27;19989;-43
2022/05/30 03:56:33;;;;;;;;;;;21.60;34.40;;;;;;5148900;27;19923;-43
2022/05/30 03:58:58;;;;;;;;;;;21.80;34.10;;;;;;5142969;27;19975;-45
2022/05/30 04:01:24;;;;;;;;;;;21.80;34.10;;;;;;5141784;27;20002;-44
2022/05/30 04:03:50;;;;;;;;;;;21.80;33.90;;;;;;5129695;27;19931;-43
2022/05/30 04:06:16;;;;;;;;;;;21.90;33.80;;;;;;5122635;27;19963;-45
2022/05/30 04:08:42;;;;;;;;;;;21.80;33.90;;;;;;5143533;27;19923;-54
2022/05/30 04:11:07;;;;;;;;;;;21.90;33.80;;;;;;5146149;27;20583;-44
2022/05/30 04:13:33;;;;;;;;;;;21.90;33.80;;;;;;5142738;27;20087;-44
2022/05/30 04:16:06;;;;;;;;;;;21.80;33.80;;;;;;5148500;27;19952;-46
2022/05/30 04:18:32;;;;;;;;;;;21.90;33.70;;;;;;5142950;27;19931;-44
2022/05/30 04:20:58;;;;;;;;;;;22.00;33.60;;;;;;5142768;27;20188;-44
2022/05/30 04:23:23;;;;;;;;;;;22.00;33.40;;;;;;5148100;27;19967;-43
2022/05/30 04:25:49;;;;;;;;;;;22.10;33.50;;;;;;5140850;27;19931;-46
2022/05/30 04:28:16;;;;;;;;;;;22.10;33.50;;;;;;5141900;27;20148;-43
2022/05/30 04:30:42;;;;;;;;;;;22.10;33.50;;;;;;5147774;27;19927;-43
2022/05/30 04:33:07;;;;;;;;;;;21.90;33.80;;;;;;5142725;27;20263;-43
2022/05/30 04:35:33;;;;;;;;;;;22.00;33.60;;;;;;5148084;27;19923;-43
2022/05/30 04:37:59;;;;;;;;;;;22.00;33.60;;;;;;5142703;27;19923;-44
2022/05/30 04:40:25;;;;;;;;;;;21.90;33.80;;;;;;5142412;27;19923;-43
2022/05/30 04:42:50;;;;;;;;;;;22.00;33.60;;;;;;5146950;27;19939;-43
2022/05/30 04:45:16;;;;;;;;;;;22.00;33.50;;;;;;5141043;27;19931;-44
2022/05/30 04:47:42;;;;;;;;;;;22.00;33.50;;;;;;5141764;27;20350;-43
2022/05/30 04:50:10;;;;;;;;;;;22.10;33.40;;;;;;5147830;27;19927;-43
2022/05/30 04:52:35;;;;;;;;;;;22.00;33.50;;;;;;5142456;27;19950;-43
2022/05/30 04:55:01;;;;;;;;;;;22.00;33.50;;;;;;5147896;27;19923;-50
2022/05/30 04:57:27;;;;;;;;;;;22.00;33.40;;;;;;5124461;27;19923;-44
2022/05/30 04:59:53;;;;;;;;;;;22.10;33.30;;;;;;5142000;27;20348;-46
2022/05/30 05:02:19;;;;;;;;;;;22.20;33.10;;;;;;5127403;27;19923;-48
2022/05/30 05:04:44;;;;;;;;;;;22.30;33.00;;;;;;5141037;27;19923;-47
2022/05/30 05:07:10;;;;;;;;;;;22.10;33.20;;;;;;5141829;27;20294;-45
2022/05/30 05:09:39;;;;;;;;;;;22.10;33.20;;;;;;5147622;27;19927;-45
2022/05/30 05:12:05;;;;;;;;;;;22.00;33.30;;;;;;5141504;27;20331;-45
2022/05/30 05:14:31;;;;;;;;;;;21.90;33.60;;;;;;5144139;27;19971;-52
2022/05/30 05:16:57;;;;;;;;;;;22.00;33.40;;;;;;5146054;27;19927;-45
2022/05/30 05:19:23;;;;;;;;;;;22.10;33.30;;;;;;5141158;27;20378;-45
2022/05/30 05:21:50;;;;;;;;;;;21.90;33.50;;;;;;5145639;27;19967;-44
2022/05/30 05:24:16;;;;;;;;;;;22.00;33.40;;;;;;5141290;27;19933;-44
2022/05/30 05:26:43;;;;;;;;;;;22.10;33.30;;;;;;5141752;27;20019;-44
2022/05/30 05:29:09;;;;;;;;;;;22.10;33.30;;;;;;5147335;27;20314;-45
2022/05/30 05:31:35;;;;;;;;;;;22.20;33.30;;;;;;5141805;27;19937;-46
2022/05/30 05:34:05;;;;;;;;;;;22.10;33.50;;;;;;5141926;27;19945;-45
2022/05/30 05:36:32;;;;;;;;;;;21.90;33.80;;;;;;5146897;27;20034;-43
2022/05/30 05:38:58;;;;;;;;;;;22.00;33.60;;;;;;5139798;27;20343;-45
2022/05/30 05:41:24;;;;;;;;;;;22.00;33.80;;;;;;5145885;27;19927;-45
2022/05/30 05:43:50;;;;;;;;;;;22.10;33.70;;;;;;5141102;27;19930;-44
2022/05/30 05:46:18;;;;;;;;;;;21.90;34.00;;;;;;5141367;27;19923;-44
2022/05/30 05:48:43;;;;;;;;;;;22.10;33.60;;;;;;5146649;27;20382;-47
2022/05/30 05:51:10;;;;;;;;;;;21.40;34.80;;;;;;5141598;27;19930;-45
2022/05/30 05:53:36;;;;;;;;;;;21.10;35.00;;;;;;5141416;27;20177;-45
2022/05/30 05:56:09;;;;;;;;;;;20.90;35.20;;;;;;5146188;27;20557;-46
2022/05/30 05:58:34;;;;;;;;;;;21.30;35.20;;;;;;5120818;27;19923;-45
2022/05/30 06:01:05;;;;;;;;;;;21.50;34.90;;;;;;5141639;27;19946;-53
2022/05/30 06:03:31;;;;;;;;;;;21.70;34.60;;;;;;5111186;27;20010;-45
2022/05/30 06:05:56;;;;;;;;;;;21.80;34.50;;;;;;5122845;27;19988;-44
2022/05/30 06:08:22;;;;;;;;;;;21.80;34.40;;;;;;5146837;27;20380;-46
2022/05/30 06:11:08;;;;;;;;;;;21.80;34.30;;;;;;5141339;27;20263;-46
2022/05/30 06:13:35;;;;;;;;;;;21.80;34.40;;;;;;5140858;27;19927;-46
2022/05/30 06:16:03;;;;;;;;;;;21.90;34.30;;;;;;5125679;27;19969;-45
2022/05/30 06:18:28;;;;;;;;;;;21.80;34.40;;;;;;5140007;27;20314;-44
2022/05/30 06:20:58;;;;;;;;;;;22.00;34.20;;;;;;5140538;27;19923;-46
2022/05/30 06:23:23;;;;;;;;;;;21.90;34.30;;;;;;5146521;27;20384;-44
2022/05/30 06:25:49;;;;;;;;;;;21.90;34.30;;;;;;5143931;27;19923;-44
2022/05/30 06:28:15;;;;;;;;;;;22.00;34.30;;;;;;5144914;27;19926;-44
2022/05/30 06:30:41;;;;;;;;;;;22.00;34.20;;;;;;5150005;27;19924;-44
2022/05/30 06:33:06;;;;;;;;;;;22.00;34.30;;;;;;5143315;27;20357;-45
2022/05/30 06:35:32;;;;;;;;;;;22.00;34.30;;;;;;5148313;27;19957;-44
2022/05/30 06:37:58;;;;;;;;;;;22.10;34.20;;;;;;5125476;27;19931;-45
2022/05/30 06:40:24;;;;;;;;;;;22.10;34.10;;;;;;5144630;27;19923;-44
2022/05/30 06:42:50;;;;;;;;;;;22.10;34.20;;;;;;5149982;27;20434;-44
2022/05/30 06:45:16;;;;;;;;;;;22.20;34.20;;;;;;5144462;27;19976;-44
2022/05/30 06:47:41;;;;;;;;;;;22.10;34.30;;;;;;5144402;27;20018;-44
2022/05/30 06:50:07;;;;;;;;;;;22.00;34.50;;;;;;5149441;27;19943;-45
2022/05/30 06:52:36;;;;;;;;;;;22.00;34.40;;;;;;5142401;27;19931;-45
2022/05/30 06:55:02;;;;;;;;;;;22.10;34.40;;;;;;5129665;27;20010;-54
2022/05/30 07:00:13;;;;;;;;;;;22.00;34.60;;;;;;5144389;27;20335;-44
2022/05/30 07:02:39;;;;;;;;;;;22.00;34.50;;;;;;5149355;27;20013;-44
2022/05/30 07:05:05;;;;;;;;;;;22.10;34.50;;;;;;5144199;27;19931;-44
2022/05/30 07:07:31;;;;;;;;;;;22.20;34.40;;;;;;5143589;27;19977;-45
2022/05/30 07:09:57;;;;;;;;;;;22.10;34.40;;;;;;5148259;27;20278;-48
2022/05/30 07:12:22;;;;;;;;;;;22.10;34.40;;;;;;5142178;27;19923;-45
2022/05/30 07:14:48;;;;;;;;;;;22.10;34.40;;;;;;5143272;27;20150;-46
2022/05/30 07:17:15;;;;;;;;;;;22.10;34.50;;;;;;5130757;27;19923;-43
2022/05/30 07:19:40;;;;;;;;;;;22.00;34.60;;;;;;5143846;27;19930;-44
2022/05/30 07:22:07;;;;;;;;;;;22.00;34.70;;;;;;5130843;27;19931;-45
2022/05/30 07:24:33;;;;;;;;;;;22.10;34.60;;;;;;5144422;27;19967;-45
2022/05/30 07:26:59;;;;;;;;;;;22.10;34.50;;;;;;5143582;27;20014;-45
2022/05/30 07:29:26;;;;;;;;;;;22.20;34.40;;;;;;5147125;27;19979;-45
2022/05/30 07:31:59;;;;;;;;;;;22.20;34.40;;;;;;5142639;27;19982;-46
2022/05/30 07:34:25;;;;;;;;;;;22.10;34.40;;;;;;5142972;27;19975;-46
2022/05/30 07:36:51;;;;;;;;;;;22.20;34.40;;;;;;5148813;27;20366;-44
2022/05/30 07:39:18;;;;;;;;;;;22.30;34.20;;;;;;5143530;27;19929;-47
2022/05/30 07:41:44;;;;;;;;;;;22.20;34.30;;;;;;5143872;27;19927;-45
2022/05/30 07:44:10;;;;;;;;;;;22.20;34.40;;;;;;5148612;27;19927;-45
2022/05/30 07:46:35;;;;;;;;;;;22.10;34.40;;;;;;5142217;27;20157;-47
2022/05/30 07:49:01;;;;;;;;;;;22.00;34.60;;;;;;5147144;27;19927;-48
2022/05/30 07:51:27;;;;;;;;;;;22.00;34.50;;;;;;5143040;27;19938;-49
2022/05/30 07:53:53;;;;;;;;;;;22.00;34.50;;;;;;5143027;27;20278;-48
2022/05/30 07:56:19;;;;;;;;;;;21.70;34.90;;;;;;5149121;27;20379;-45
2022/05/30 07:58:45;;;;;;;;;;;21.60;34.70;;;;;;5139046;27;19930;-44
2022/05/30 08:01:12;;;;;;;;;;;21.40;34.60;;;;;;5142965;27;20230;-45
2022/05/30 08:03:37;;;;;;;;;;;21.60;35.10;;;;;;5148076;27;19923;-44
2022/05/30 08:06:07;;;;;;;;;;;21.80;34.60;;;;;;5141298;27;19930;-44
2022/05/30 08:08:33;;;;;;;;;;;21.80;34.70;;;;;;5147658;27;19927;-43
2022/05/30 08:10:58;;;;;;;;;;;21.80;34.70;;;;;;5142753;27;19930;-45
2022/05/30 08:13:24;;;;;;;;;;;21.90;34.60;;;;;;5142852;27;19929;-46
2022/05/30 08:15:50;;;;;;;;;;;21.90;34.50;;;;;;5148314;27;19927;-45
2022/05/30 08:18:17;;;;;;;;;;;21.80;34.50;;;;;;5142976;27;20382;-43
2022/05/30 08:20:43;;;;;;;;;;;22.00;34.20;;;;;;5142617;27;19927;-46
2022/05/30 08:23:09;;;;;;;;;;;22.10;34.10;;;;;;5147560;27;20310;-44
2022/05/30 08:25:36;;;;;;;;;;;22.10;34.00;;;;;;5141136;27;19998;-44
2022/05/30 08:28:01;;;;;;;;;;;22.10;34.00;;;;;;5126770;27;19923;-54
2022/05/30 08:30:28;;;;;;;;;;;22.20;33.80;;;;;;5145208;27;19982;-47
2022/05/30 08:32:53;;;;;;;;;;;22.10;33.80;;;;;;5122815;27;19927;-45
2022/05/30 08:35:19;;;;;;;;;;;22.20;33.70;;;;;;5127587;28;19938;-45
2022/05/30 08:37:45;;;;;;;;;;;22.10;33.60;;;;;;5122028;28;19923;-43
2022/05/30 08:43:15;;;;;;;;;;;22.10;33.40;;;;;;5125074;28;20358;-45
2022/05/30 08:45:41;;;;;;;;;;;22.20;33.20;;;;;;5121083;28;20585;-45
2022/05/30 08:48:11;;;;;;;;;;;22.10;33.20;;;;;;5120495;27;19927;-46
2022/05/30 08:50:39;;;;;;;;;;;22.20;33.00;;;;;;5127463;28;19945;-44
2022/05/30 08:53:20;;;;;;;;;;;22.20;32.90;;;;;;5121727;28;20294;-44
2022/05/30 08:55:49;;;;;;;;;;;22.30;32.70;;;;;;5121690;28;19927;-44
2022/05/30 08:58:18;;;;;;;;;;;22.20;32.60;;;;;;5126862;28;19923;-44
2022/05/30 09:00:51;;;;;;;;;;;22.00;32.60;;;;;;5119749;28;19931;-50
2022/05/30 09:03:18;;;;;;;;;;;22.00;32.50;;;;;;5119933;28;19996;-45
2022/05/30 09:05:46;;;;;;;;;;;22.10;32.30;;;;;;5126452;28;19931;-45
2022/05/30 09:08:14;;;;;;;;;;;22.10;32.30;;;;;;5101701;28;19986;-45
2022/05/30 09:11:09;;;;;;;;;;;22.10;32.20;;;;;;5122574;28;20019;-54
2022/05/30 09:13:37;;;;;;;;;;;22.10;32.10;;;;;;5104663;28;19927;-43
2022/05/30 09:16:22;;;;;;;;;;;22.10;32.10;;;;;;5121008;28;19923;-44
2022/05/30 09:18:49;;;;;;;;;;;22.30;31.70;;;;;;5120078;28;20627;-45
2022/05/30 09:21:15;;;;;;;;;;;22.20;31.60;;;;;;5125322;28;20327;-43
2022/05/30 09:23:41;;;;;;;;;;;22.10;31.50;;;;;;5102466;28;19923;-45
2022/05/30 09:26:08;;;;;;;;;;;22.00;31.50;;;;;;5123234;28;19941;-54
2022/05/30 09:28:35;;;;;;;;;;;22.00;31.50;;;;;;5125515;28;19927;-44
2022/05/30 09:31:04;;;;;;;;;;;22.10;31.40;;;;;;5102951;28;20018;-44
2022/05/30 09:33:31;;;;;;;;;;;22.10;31.30;;;;;;5126583;28;20323;-45
2022/05/30 09:36:09;;;;;;;;;;;22.10;31.20;;;;;;5102858;28;19945;-45
2022/05/30 09:38:39;;;;;;;;;;;22.10;31.10;;;;;;5118796;28;20405;-43
2022/05/30 09:41:06;;;;;;;;;;;22.20;30.90;;;;;;5125773;28;19931;-44
2022/05/30 09:43:51;;;;;;;;;;;22.20;31.00;;;;;;5120634;28;20444;-45
2022/05/30 09:46:20;;;;;;;;;;;22.20;30.90;;;;;;5121291;28;19927;-46
2022/05/30 09:49:18;;;;;;;;;;;22.10;31.10;;;;;;5126509;28;20413;-44
2022/05/30 09:51:51;;;;;;;;;;;22.20;31.00;;;;;;5066848;28;20019;-45
2022/05/30 09:54:22;;;;;;;;;;;22.10;31.10;;;;;;5120722;28;19929;-44
2022/05/30 09:56:48;;;;;;;;;;;22.10;31.00;;;;;;5123785;28;19923;-45
2022/05/30 09:59:17;;;;;;;;;;;22.20;30.70;;;;;;5119706;27;19924;-44
2022/05/30 10:01:43;;;;;;;;;;;22.00;31.00;;;;;;5120194;28;19936;-46
2022/05/30 10:04:13;;;;;;;;;;;21.40;31.70;;;;;;5107651;28;20294;-45
2022/05/30 10:06:39;;;;;;;;;;;21.30;31.60;;;;;;5102228;28;19931;-43
2022/05/30 10:09:21;;;;;;;;;;;21.50;31.50;;;;;;5120782;28;20348;-44
2022/05/30 10:11:52;;;;;;;;;;;21.80;30.60;;;;;;5126024;28;19931;-45
2022/05/30 10:14:19;;;;;;;;;;;21.80;30.30;;;;;;5118948;28;20141;-48
2022/05/30 10:16:45;;;;;;;;;;;21.90;30.10;;;;;;5119040;28;19930;-45
2022/05/30 10:19:18;;;;;;;;;;;21.90;30.00;;;;;;5125315;28;20463;-44
2022/05/30 10:30:18;;;;;;;;;;;22.20;29.40;;;;;;5120126;28;20010;-46
2022/05/30 10:32:48;;;;;;;;;;;21.90;29.30;;;;;;5118491;28;20019;-47
2022/05/30 10:35:16;;;;;;;;;;;22.00;29.20;;;;;;5106017;28;20374;-47
2022/05/30 10:38:03;;;;;;;;;;;22.10;29.10;;;;;;5119759;28;19923;-45
2022/05/30 10:40:28;;;;;;;;;;;22.10;29.00;;;;;;5119897;28;20351;-46
2022/05/30 10:42:54;;;;;;;;;;;22.10;28.80;;;;;;5125470;28;20038;-44
2022/05/30 10:45:26;;;;;;;;;;;22.20;28.80;;;;;;5120445;28;19930;-46
2022/05/30 10:47:53;;;;;;;;;;;22.20;28.60;;;;;;5120227;28;19929;-47
2022/05/30 10:50:20;;;;;;;;;;;22.20;28.50;;;;;;5124558;28;20347;-47
2022/05/30 10:53:05;;;;;;;;;;;22.10;28.40;;;;;;5114199;28;19924;-48
2022/05/30 10:55:34;;;;;;;;;;;22.20;28.30;;;;;;5083901;28;21288;-46
2022/05/30 10:58:00;;;;;;;;;;;22.20;28.30;;;;;;5106874;28;19983;-45
2022/05/30 11:00:29;;;;;;;;;;;22.10;28.30;;;;;;5119908;28;19934;-45
2022/05/30 11:02:59;;;;;;;;;;;22.20;28.20;;;;;;5103350;28;20025;-54
2022/05/30 11:05:26;;;;;;;;;;;22.10;28.20;;;;;;5107008;28;20472;-45
2022/05/30 11:08:14;;;;;;;;;;;22.10;28.00;;;;;;5119817;28;19930;-44
2022/05/30 11:10:42;;;;;;;;;;;22.10;28.00;;;;;;5101610;28;19924;-50
2022/05/30 11:13:13;;;;;;;;;;;22.20;27.90;;;;;;5128017;28;19924;-45
2022/05/30 11:16:08;;;;;;;;;;;22.30;27.70;;;;;;5104656;28;20422;-43
2022/05/30 11:18:40;;;;;;;;;;;22.30;27.70;;;;;;5101287;28;20067;-45
2022/05/30 11:21:07;;;;;;;;;;;22.30;27.60;;;;;;5125269;28;20006;-45
2022/05/30 11:23:33;;;;;;;;;;;22.20;27.60;;;;;;5104797;28;20027;-45
2022/05/30 11:26:03;;;;;;;;;;;22.10;27.70;;;;;;5128221;28;19927;-47
2022/05/30 11:28:29;;;;;;;;;;;22.20;27.60;;;;;;5103980;28;20014;-44
2022/05/30 11:30:58;;;;;;;;;;;22.20;27.60;;;;;;5121991;28;19931;-44
2022/05/30 11:33:30;;;;;;;;;;;22.20;27.50;;;;;;5127999;28;19923;-43
2022/05/30 11:35:59;;;;;;;;;;;22.10;27.50;;;;;;5122885;28;19930;-44
2022/05/30 11:38:31;;;;;;;;;;;22.10;27.50;;;;;;5122913;28;19927;-44
2022/05/30 11:41:00;;;;;;;;;;;22.20;27.50;;;;;;5128398;28;20377;-46
2022/05/30 11:43:25;;;;;;;;;;;22.20;27.50;;;;;;5122533;28;20018;-44
2022/05/30 11:45:55;;;;;;;;;;;22.20;27.40;;;;;;5121424;28;20236;-45
2022/05/30 11:48:25;;;;;;;;;;;22.20;27.30;;;;;;5106243;28;20011;-45
2022/05/30 11:51:00;;;;;;;;;;;22.20;27.40;;;;;;5121923;28;19923;-46
2022/05/30 11:53:32;;;;;;;;;;;22.10;27.40;;;;;;5122513;28;20202;-45
2022/05/30 11:56:01;;;;;;;;;;;22.20;27.30;;;;;;5107249;28;19927;-44
2022/05/30 11:58:47;;;;;;;;;;;22.10;27.30;;;;;;5122761;28;20430;-43
2022/05/30 12:01:12;;;;;;;;;;;22.20;27.20;;;;;;5121559;28;20669;-43
2022/05/30 12:03:43;;;;;;;;;;;22.00;27.20;;;;;;5108794;28;19930;-47
2022/05/30 12:06:17;;;;;;;;;;;22.20;27.00;;;;;;5120915;28;20327;-43
2022/05/30 12:09:01;;;;;;;;;;;21.70;27.50;;;;;;5123397;28;19927;-51
2022/05/30 12:11:27;;;;;;;;;;;21.10;28.30;;;;;;5127777;28;19928;-44
2022/05/30 12:13:59;;;;;;;;;;;21.30;28.10;;;;;;5122376;28;20351;-44
2022/05/30 12:16:31;;;;;;;;;;;21.80;27.40;;;;;;5125594;28;20383;-51
2022/05/30 12:24:52;;;;;;;;;;;22.00;27.10;;;;;;5120540;28;20313;-46
2022/05/30 12:27:28;;;;;;;;;;;22.00;27.10;;;;;;5126918;28;19923;-45
2022/05/30 12:29:54;;;;;;;;;;;22.00;27.10;;;;;;5122136;28;19923;-45
2022/05/30 12:32:20;;;;;;;;;;;22.00;26.90;;;;;;5087088;28;20489;-46
2022/05/30 12:35:03;;;;;;;;;;;22.10;26.70;;;;;;5127516;28;19927;-45
2022/05/30 12:37:38;;;;;;;;;;;22.10;26.60;;;;;;5121838;28;19935;-47
2022/05/30 12:40:04;;;;;;;;;;;22.20;26.50;;;;;;5121842;28;19927;-46
2022/05/30 12:42:34;;;;;;;;;;;22.30;26.40;;;;;;5124962;28;19938;-45
2022/05/30 12:45:32;;;;;;;;;;;22.30;26.40;;;;;;5103142;28;19931;-46
2022/05/30 12:47:58;;;;;;;;;;;22.00;26.40;;;;;;5065226;28;19971;-48
2022/05/30 12:50:30;;;;;;;;;;;22.10;26.40;;;;;;5127387;28;20325;-46
2022/05/30 12:52:56;;;;;;;;;;;22.00;26.50;;;;;;5121877;28;20290;-46
2022/05/30 12:55:33;;;;;;;;;;;22.10;26.50;;;;;;5121532;28;20106;-46
2022/05/30 12:57:58;;;;;;;;;;;22.10;26.50;;;;;;5127027;28;20388;-46
2022/05/30 13:00:40;;;;;;;;;;;22.10;26.40;;;;;;5119376;28;19923;-46
2022/05/30 13:03:10;;;;;;;;;;;22.20;26.40;;;;;;5120982;28;20175;-43
2022/05/30 13:05:36;;;;;;;;;;;22.10;26.50;;;;;;5126610;28;20401;-44
2022/05/30 13:08:02;;;;;;;;;;;22.20;26.40;;;;;;5121843;28;20046;-45
2022/05/30 13:10:40;;;;;;;;;;;22.20;26.40;;;;;;5126920;28;20393;-45
2022/05/30 13:13:08;;;;;;;;;;;21.90;26.40;;;;;;5126155;28;19929;-44
2022/05/30 13:15:36;;;;;;;;;;;22.00;26.40;;;;;;5121318;28;20323;-46
2022/05/30 13:18:04;;;;;;;;;;;22.10;26.30;;;;;;5121482;28;19923;-49
2022/05/30 13:20:32;;;;;;;;;;;22.20;26.20;;;;;;5120026;28;19923;-48
2022/05/30 13:22:59;;;;;;;;;;;22.20;26.30;;;;;;5102673;28;20010;-47
2022/05/30 13:25:32;;;;;;;;;;;22.10;26.10;;;;;;5126706;28;19976;-43
2022/05/30 13:28:11;;;;;;;;;;;22.20;25.90;;;;;;5103404;28;19923;-45
2022/05/30 13:30:37;;;;;;;;;;;22.10;26.00;;;;;;5101784;28;19934;-46
2022/05/30 13:33:13;;;;;;;;;;;22.20;25.80;;;;;;5126022;27;19930;-45
2022/05/30 13:35:39;;;;;;;;;;;22.10;26.00;;;;;;5101712;28;19923;-47
2022/05/30 13:38:06;;;;;;;;;;;22.10;26.10;;;;;;5100840;28;20291;-46
2022/05/30 13:40:32;;;;;;;;;;;22.10;26.00;;;;;;5126237;28;20290;-48
2022/05/30 13:42:59;;;;;;;;;;;22.20;25.80;;;;;;5102278;28;19955;-47
2022/05/30 13:45:29;;;;;;;;;;;22.20;25.80;;;;;;5124524;28;19924;-56
2022/05/30 13:47:59;;;;;;;;;;;22.10;25.80;;;;;;5125048;28;20078;-46
2022/05/30 13:50:26;;;;;;;;;;;22.20;25.70;;;;;;5120890;28;20362;-51
2022/05/30 13:52:52;;;;;;;;;;;22.20;25.40;;;;;;5126314;28;19923;-50
2022/05/30 13:55:21;;;;;;;;;;;22.20;25.50;;;;;;5118619;28;20321;-49
2022/05/30 13:57:48;;;;;;;;;;;22.10;25.70;;;;;;5119631;28;19970;-48
2022/05/30 14:00:18;;;;;;;;;;;22.10;25.70;;;;;;5125702;28;20950;-46
2022/05/30 14:02:48;;;;;;;;;;;22.10;26.00;;;;;;5101897;28;19924;-45
2022/05/30 14:05:29;;;;;;;;;;;22.10;25.80;;;;;;5120482;28;19927;-44
2022/05/30 14:07:55;;;;;;;;;;;22.10;25.70;;;;;;5126580;28;19931;-45
2022/05/30 14:10:24;;;;;;;;;;;21.90;25.80;;;;;;5120943;28;20010;-44
2022/05/30 14:12:51;;;;;;;;;;;22.20;25.70;;;;;;5119282;28;20458;-48
2022/05/30 14:15:18;;;;;;;;;;;21.50;26.50;;;;;;5124449;28;19924;-47
2022/05/30 14:17:44;;;;;;;;;;;21.30;26.70;;;;;;5119803;28;19923;-50
2022/05/30 14:20:12;;;;;;;;;;;21.30;27.10;;;;;;5107684;28;19924;-50
2022/05/30 14:22:58;;;;;;;;;;;21.80;26.40;;;;;;5121173;28;20048;-48
2022/05/30 14:25:33;;;;;;;;;;;22.00;26.10;;;;;;5120189;28;20105;-47
2022/05/30 14:27:59;;;;;;;;;;;21.90;26.20;;;;;;5124179;28;19924;-55
2022/05/30 14:30:25;;;;;;;;;;;22.00;26.10;;;;;;5121384;28;19975;-50
2022/05/30 14:33:05;;;;;;;;;;;22.10;26.10;;;;;;5099737;28;20414;-48
2022/05/30 14:35:31;;;;;;;;;;;22.20;26.00;;;;;;5124948;28;20018;-46
2022/05/30 14:37:57;;;;;;;;;;;22.20;26.00;;;;;;5120092;28;20375;-44
2022/05/30 14:40:30;;;;;;;;;;;21.90;26.00;;;;;;5120508;28;19931;-44
2022/05/30 14:42:57;;;;;;;;;;;22.00;25.90;;;;;;5105613;28;19923;-46
2022/05/30 14:45:28;;;;;;;;;;;22.20;25.70;;;;;;5120971;27;20010;-44
2022/05/30 14:47:56;;;;;;;;;;;22.10;25.80;;;;;;5123529;28;19991;-45
2022/05/30 14:50:25;;;;;;;;;;;22.20;25.90;;;;;;5108572;28;19923;-45
2022/05/30 14:52:52;;;;;;;;;;;22.10;26.00;;;;;;5104421;28;20060;-47